Time;durP1;ratioP1;P1;durP2;ratioP2;P2;SDS_P1;SDS_P2;PMS_P1;PMS_P2;Temp;Humidity;BMP_temperature;BMP_pressure;BME280_temperature;BME280_humidity;BME280_pressure;Samples;Min_cycle;Max_cycle;Signal;HPM_P1;HPM_P2
2022/11/29 00:01:38;;;;;;;429.90;37.47;;;8.30;99.90;;;;;;5042145;28;20699;-73
2022/11/29 00:04:04;;;;;;;558.25;43.20;;;8.30;99.90;;;;;;5021167;28;20931;-73
2022/11/29 00:06:32;;;;;;;531.38;43.33;;;8.30;99.90;;;;;;5016342;28;20409;-73
2022/11/29 00:08:59;;;;;;;499.00;43.67;;;8.30;99.90;;;;;;5020067;28;20777;-73
2022/11/29 00:14:18;;;;;;;572.60;47.95;;;8.30;99.90;;;;;;5034515;28;20926;-73
2022/11/29 00:16:44;;;;;;;448.65;42.85;;;8.30;99.90;;;;;;5027539;28;20437;-73
2022/11/29 00:19:11;;;;;;;594.40;50.70;;;8.30;99.90;;;;;;4994774;28;20411;-73
2022/11/29 00:21:37;;;;;;;619.28;52.33;;;8.30;99.90;;;;;;5015700;28;20413;-73
2022/11/29 00:24:03;;;;;;;408.02;43.53;;;8.40;99.90;;;;;;4993911;28;20781;-73
2022/11/29 00:26:28;;;;;;;573.45;48.22;;;8.30;99.90;;;;;;5011413;28;20407;-73
2022/11/29 00:28:54;;;;;;;385.93;43.70;;;8.30;99.90;;;;;;5041199;28;20797;-73
2022/11/29 00:31:21;;;;;;;347.73;42.78;;;8.40;99.90;;;;;;5001980;28;20413;-73
2022/11/29 00:33:47;;;;;;;368.80;42.30;;;8.40;99.90;;;;;;5018871;28;20417;-73
2022/11/29 00:36:13;;;;;;;325.30;41.97;;;8.40;99.90;;;;;;5028847;28;20468;-73
2022/11/29 00:38:39;;;;;;;320.25;42.53;;;8.40;99.90;;;;;;4999100;28;20498;-73
2022/11/29 00:41:05;;;;;;;419.20;44.83;;;8.40;99.90;;;;;;5001139;28;20481;-73
2022/11/29 00:43:31;;;;;;;363.52;42.42;;;8.40;99.90;;;;;;5017192;28;20486;-72
2022/11/29 00:45:57;;;;;;;289.87;39.77;;;8.40;99.90;;;;;;5028367;28;20981;-72
2022/11/29 00:48:22;;;;;;;288.77;40.92;;;8.30;99.90;;;;;;4996338;28;20468;-73
2022/11/29 00:50:48;;;;;;;312.37;40.93;;;8.30;99.90;;;;;;5031707;28;20773;-73
2022/11/29 00:53:14;;;;;;;321.20;40.42;;;8.40;99.90;;;;;;5045546;28;20450;-73
2022/11/29 00:55:39;;;;;;;371.13;42.00;;;8.30;99.90;;;;;;5050459;28;20432;-73
2022/11/29 00:58:05;;;;;;;449.30;47.07;;;8.30;99.90;;;;;;5035520;28;21067;-73
2022/11/29 01:00:30;;;;;;;419.65;43.85;;;8.30;99.90;;;;;;5043280;28;20403;-73
2022/11/29 01:02:56;;;;;;;488.47;46.93;;;8.30;99.90;;;;;;5038032;28;20485;-72
2022/11/29 01:05:22;;;;;;;426.50;43.60;;;8.30;99.90;;;;;;5050627;28;20410;-73
2022/11/29 01:07:47;;;;;;;507.67;47.50;;;8.30;99.90;;;;;;5035338;28;20422;-73
2022/11/29 01:10:13;;;;;;;555.93;50.10;;;8.30;99.90;;;;;;5017741;28;20402;-73
2022/11/29 01:12:39;;;;;;;414.35;41.28;;;8.30;99.90;;;;;;5012415;28;20419;-73
2022/11/29 01:15:06;;;;;;;529.17;48.40;;;8.30;99.90;;;;;;5018504;28;20767;-72
2022/11/29 01:17:34;;;;;;;491.42;46.70;;;8.20;99.90;;;;;;5005765;28;20527;-73
2022/11/29 01:19:59;;;;;;;378.55;40.78;;;8.20;99.90;;;;;;4998382;28;20907;-73
2022/11/29 01:22:25;;;;;;;440.30;44.10;;;8.20;99.90;;;;;;5018085;28;20399;-73
2022/11/29 01:24:50;;;;;;;419.87;42.97;;;8.20;99.90;;;;;;5010915;28;20829;-72
2022/11/29 01:27:16;;;;;;;438.20;43.20;;;8.20;99.90;;;;;;5010271;28;20412;-72
2022/11/29 01:29:42;;;;;;;451.23;43.87;;;8.20;99.90;;;;;;4999695;28;20434;-73
2022/11/29 01:32:07;;;;;;;447.67;42.80;;;8.20;99.90;;;;;;4999601;28;20460;-73
2022/11/29 01:34:33;;;;;;;463.73;44.45;;;8.20;99.90;;;;;;5017488;28;20402;-73
2022/11/29 01:36:59;;;;;;;441.67;41.03;;;8.20;99.90;;;;;;5017662;28;20436;-73
2022/11/29 01:39:24;;;;;;;449.23;41.13;;;8.10;99.90;;;;;;5023761;28;20914;-72
2022/11/29 01:41:50;;;;;;;451.90;41.00;;;8.10;99.90;;;;;;5022627;28;20391;-73
2022/11/29 01:44:15;;;;;;;485.30;42.70;;;8.10;99.90;;;;;;5027280;28;20410;-73
2022/11/29 01:46:43;;;;;;;481.10;42.37;;;8.10;99.90;;;;;;5025156;28;20413;-73
2022/11/29 01:49:11;;;;;;;459.48;40.72;;;8.20;99.90;;;;;;5004728;28;20411;-72
2022/11/29 01:51:40;;;;;;;489.88;43.97;;;8.10;99.90;;;;;;5008352;28;20447;-72
2022/11/29 01:54:08;;;;;;;491.08;44.33;;;8.10;99.90;;;;;;5004920;28;20412;-73
2022/11/29 01:56:34;;;;;;;435.15;41.38;;;8.10;99.90;;;;;;5025353;28;20511;-73
2022/11/29 01:59:04;;;;;;;479.45;43.03;;;8.10;99.90;;;;;;5011194;28;20905;-72
2022/11/29 02:01:30;;;;;;;486.52;44.30;;;8.10;99.90;;;;;;4997863;28;20484;-73
2022/11/29 02:03:55;;;;;;;462.83;40.53;;;8.10;99.90;;;;;;5002177;28;20518;-73
2022/11/29 02:06:22;;;;;;;500.08;44.60;;;8.10;99.90;;;;;;5009828;28;20413;-73
2022/11/29 02:08:47;;;;;;;516.75;43.13;;;8.10;99.90;;;;;;5036539;28;20496;-73
2022/11/29 02:11:39;;;;;;;518.05;45.17;;;8.00;99.90;;;;;;5043366;28;20880;-73
2022/11/29 02:14:16;;;;;;;451.52;38.92;;;8.00;99.90;;;;;;5012293;28;20422;-73
2022/11/29 02:17:02;;;;;;;433.48;39.40;;;8.10;99.90;;;;;;5005596;28;20795;-73
2022/11/29 02:19:31;;;;;;;487.33;42.28;;;8.00;99.90;;;;;;5045000;28;20542;-73
2022/11/29 02:22:12;;;;;;;481.33;41.25;;;8.00;99.90;;;;;;5034126;28;20445;-73
2022/11/29 02:24:56;;;;;;;481.23;42.08;;;8.00;99.90;;;;;;5014093;28;20964;-72
2022/11/29 02:27:34;;;;;;;506.67;43.13;;;8.00;99.90;;;;;;5015768;28;20419;-73
2022/11/29 02:30:19;;;;;;;456.75;39.63;;;8.00;99.90;;;;;;5012061;28;20472;-72
2022/11/29 02:33:16;;;;;;;442.23;38.42;;;8.00;99.90;;;;;;5042132;28;20408;-73
2022/11/29 02:35:57;;;;;;;451.27;39.03;;;8.00;99.90;;;;;;5032188;28;21006;-72
2022/11/29 02:38:48;;;;;;;442.17;39.38;;;8.00;99.90;;;;;;5048891;28;20421;-73
2022/11/29 02:41:45;;;;;;;474.05;41.28;;;8.00;99.90;;;;;;5025858;28;20417;-73
2022/11/29 02:44:40;;;;;;;456.08;39.60;;;8.00;99.90;;;;;;5029883;28;20415;-73
2022/11/29 02:47:12;;;;;;;479.45;41.15;;;8.00;99.90;;;;;;5017938;28;20428;-73
2022/11/29 02:49:59;;;;;;;446.13;39.83;;;8.00;99.90;;;;;;5004355;28;20418;-72
2022/11/29 02:52:31;;;;;;;436.83;39.57;;;8.00;99.90;;;;;;5028569;28;20419;-73
2022/11/29 02:55:14;;;;;;;417.48;39.35;;;8.00;99.90;;;;;;5028908;28;20403;-73
2022/11/29 02:58:02;;;;;;;506.77;43.80;;;8.00;99.90;;;;;;5004449;28;20415;-73
2022/11/29 03:00:28;;;;;;;537.90;46.03;;;8.00;99.90;;;;;;4999840;28;20445;-72
2022/11/29 03:03:08;;;;;;;495.10;42.50;;;8.00;99.90;;;;;;5041307;28;20414;-73
2022/11/29 03:05:58;;;;;;;469.10;41.53;;;8.00;99.90;;;;;;5030912;28;20420;-72
2022/11/29 03:09:12;;;;;;;412.38;38.35;;;8.00;99.90;;;;;;5012761;28;20479;-73
2022/11/29 03:12:08;;;;;;;515.63;44.25;;;8.00;99.90;;;;;;4981207;28;20475;-72
2022/11/29 03:14:55;;;;;;;391.50;40.22;;;8.00;99.90;;;;;;5016756;28;20559;-73
2022/11/29 03:17:40;;;;;;;497.13;43.58;;;8.00;99.90;;;;;;5047735;28;20521;-73
2022/11/29 03:20:21;;;;;;;386.92;38.90;;;8.00;99.90;;;;;;5022966;28;20419;-73
2022/11/29 03:23:15;;;;;;;388.25;41.15;;;8.00;99.90;;;;;;5031170;28;20436;-73
2022/11/29 03:26:10;;;;;;;412.40;41.88;;;8.00;99.90;;;;;;5024436;28;20451;-73
2022/11/29 03:28:41;;;;;;;350.08;40.75;;;8.00;99.90;;;;;;5037740;28;20424;-73
2022/11/29 03:31:19;;;;;;;387.95;41.33;;;8.00;99.90;;;;;;5013761;28;20504;-73
2022/11/29 03:34:03;;;;;;;355.65;40.20;;;8.00;99.90;;;;;;5014714;28;20482;-73
2022/11/29 03:36:44;;;;;;;351.05;38.83;;;8.00;99.90;;;;;;5021206;28;20435;-72
2022/11/29 03:39:18;;;;;;;320.70;37.88;;;8.00;99.90;;;;;;5036214;28;20413;-72
2022/11/29 03:42:02;;;;;;;347.58;38.83;;;8.00;99.90;;;;;;5015624;28;20439;-72
2022/11/29 03:44:44;;;;;;;435.40;43.38;;;8.00;99.90;;;;;;5028827;28;20407;-72
2022/11/29 03:47:17;;;;;;;336.25;37.75;;;8.00;99.90;;;;;;5009559;28;20758;-72
2022/11/29 03:49:55;;;;;;;423.15;41.45;;;8.00;99.90;;;;;;5032063;28;20914;-73
2022/11/29 03:52:37;;;;;;;367.80;37.65;;;8.00;99.90;;;;;;5017970;28;20468;-72
2022/11/29 03:55:20;;;;;;;455.17;42.23;;;7.90;99.90;;;;;;5001210;28;20484;-72
2022/11/29 03:58:31;;;;;;;391.23;39.05;;;8.00;99.90;;;;;;5043183;28;20410;-73
2022/11/29 04:00:59;;;;;;;449.35;40.60;;;7.90;99.90;;;;;;5027966;28;20422;-73
2022/11/29 04:03:38;;;;;;;443.15;41.28;;;8.00;99.90;;;;;;5027869;28;20411;-73
2022/11/29 04:06:16;;;;;;;453.48;42.70;;;7.90;99.90;;;;;;5028872;28;20827;-73
2022/11/29 04:08:59;;;;;;;421.67;40.17;;;8.00;99.90;;;;;;5023473;28;20479;-73
2022/11/29 04:11:57;;;;;;;500.55;44.30;;;7.90;99.90;;;;;;5022469;28;20446;-73
2022/11/29 04:15:01;;;;;;;443.65;41.72;;;7.90;99.90;;;;;;5012850;28;20447;-73
2022/11/29 04:17:59;;;;;;;411.10;39.95;;;7.90;99.90;;;;;;4994429;28;20541;-73
2022/11/29 04:20:50;;;;;;;442.70;41.40;;;7.90;99.90;;;;;;5023133;28;20417;-72
2022/11/29 04:23:37;;;;;;;401.30;40.92;;;7.90;99.90;;;;;;5010888;28;20502;-72
2022/11/29 04:26:21;;;;;;;271.65;35.50;;;7.90;99.90;;;;;;5026243;28;20502;-73
2022/11/29 04:29:10;;;;;;;338.73;38.73;;;7.90;99.90;;;;;;5006472;28;20417;-73
2022/11/29 04:32:25;;;;;;;261.23;36.65;;;7.90;99.90;;;;;;5012771;28;20510;-73
2022/11/29 04:35:13;;;;;;;260.65;35.20;;;7.90;99.90;;;;;;4995903;28;20423;-72
2022/11/29 04:38:13;;;;;;;207.93;33.70;;;7.90;99.90;;;;;;5021364;28;20415;-73
2022/11/29 04:40:55;;;;;;;256.13;36.55;;;7.90;99.90;;;;;;4988119;28;20432;-73
2022/11/29 04:43:51;;;;;;;199.93;33.43;;;7.90;99.90;;;;;;5013692;28;20413;-73
2022/11/29 04:46:44;;;;;;;163.82;32.55;;;7.80;99.90;;;;;;4984959;28;20436;-73
2022/11/29 04:49:31;;;;;;;194.77;33.88;;;7.80;99.90;;;;;;5028259;28;20418;-72
2022/11/29 04:52:15;;;;;;;177.30;33.00;;;7.90;99.90;;;;;;5028851;28;20415;-72
2022/11/29 04:55:17;;;;;;;165.25;33.63;;;7.80;99.90;;;;;;5005350;28;20409;-73
2022/11/29 04:58:19;;;;;;;174.50;34.10;;;7.90;99.90;;;;;;5018349;28;20936;-73
2022/11/29 05:01:14;;;;;;;157.27;32.33;;;7.80;99.90;;;;;;5011636;28;20484;-73
2022/11/29 05:03:41;;;;;;;139.52;32.92;;;7.80;99.90;;;;;;5003027;28;20419;-73
2022/11/29 05:06:41;;;;;;;158.07;33.30;;;7.80;99.90;;;;;;5030873;28;20415;-73
2022/11/29 05:09:26;;;;;;;134.25;32.60;;;7.80;99.90;;;;;;5048267;28;20493;-73
2022/11/29 05:12:17;;;;;;;169.02;34.45;;;7.80;99.90;;;;;;5049656;28;20540;-73
2022/11/29 05:15:04;;;;;;;211.82;36.65;;;7.80;99.90;;;;;;5049935;28;20440;-73
2022/11/29 05:17:41;;;;;;;208.13;36.83;;;7.80;99.90;;;;;;5029252;28;20434;-73
2022/11/29 05:20:33;;;;;;;220.63;36.75;;;7.80;99.90;;;;;;5048951;28;20821;-73
2022/11/29 05:23:17;;;;;;;220.73;36.78;;;7.80;99.90;;;;;;5030621;28;20810;-73
2022/11/29 05:26:28;;;;;;;221.43;36.77;;;7.80;99.90;;;;;;5042714;28;20926;-73
2022/11/29 05:29:05;;;;;;;192.90;35.50;;;7.80;99.90;;;;;;5010444;28;20422;-73
2022/11/29 05:31:44;;;;;;;217.90;36.50;;;7.70;99.90;;;;;;5044477;28;20415;-74
2022/11/29 05:34:43;;;;;;;187.90;35.28;;;7.70;99.90;;;;;;5013174;28;20769;-73
2022/11/29 05:37:47;;;;;;;191.55;36.78;;;7.80;99.90;;;;;;5023955;28;20462;-74
2022/11/29 05:40:38;;;;;;;215.88;36.90;;;7.80;99.90;;;;;;5048079;28;20406;-74
2022/11/29 05:43:24;;;;;;;198.13;36.80;;;7.80;99.90;;;;;;5049885;28;20417;-73
2022/11/29 05:46:15;;;;;;;183.05;35.28;;;7.80;99.90;;;;;;5049223;28;20400;-74
2022/11/29 05:49:08;;;;;;;179.35;37.05;;;7.70;99.90;;;;;;5024696;28;20797;-74
2022/11/29 05:51:52;;;;;;;195.83;37.13;;;7.80;99.90;;;;;;5032047;28;20449;-73
2022/11/29 05:54:29;;;;;;;175.98;36.45;;;7.80;99.90;;;;;;5047367;28;20828;-73
2022/11/29 05:56:59;;;;;;;166.65;35.50;;;7.70;99.90;;;;;;5031995;28;20427;-74
2022/11/29 05:59:28;;;;;;;189.23;36.45;;;7.70;99.90;;;;;;5048820;28;20965;-74
2022/11/29 06:02:14;;;;;;;188.88;37.95;;;7.70;99.90;;;;;;5046010;28;21024;-74
2022/11/29 06:05:08;;;;;;;204.10;37.72;;;7.70;99.90;;;;;;5031011;28;20486;-74
2022/11/29 06:07:36;;;;;;;190.90;37.08;;;7.70;99.90;;;;;;5028758;28;20421;-74
2022/11/29 06:10:16;;;;;;;175.23;36.97;;;7.70;99.90;;;;;;5045082;28;20417;-74
2022/11/29 06:13:04;;;;;;;168.48;36.60;;;7.70;99.90;;;;;;5037174;28;20430;-74
2022/11/29 06:16:06;;;;;;;171.13;36.97;;;7.70;99.90;;;;;;5026568;28;20412;-74
2022/11/29 06:19:02;;;;;;;179.87;37.77;;;7.70;99.90;;;;;;5028109;28;20415;-74
2022/11/29 06:21:44;;;;;;;165.93;36.90;;;7.70;99.90;;;;;;5030632;28;20413;-74
2022/11/29 06:24:40;;;;;;;186.85;37.95;;;7.60;99.90;;;;;;5048177;28;20414;-74
2022/11/29 06:27:32;;;;;;;154.70;35.83;;;7.60;99.90;;;;;;5039134;28;20500;-74
2022/11/29 06:30:17;;;;;;;156.85;35.63;;;7.60;99.90;;;;;;4995657;28;20909;-74
2022/11/29 06:33:02;;;;;;;168.55;36.40;;;7.60;99.90;;;;;;5031980;28;20414;-73
2022/11/29 06:35:34;;;;;;;160.95;35.92;;;7.60;99.90;;;;;;5048493;28;20406;-75
2022/11/29 06:38:26;;;;;;;174.70;35.92;;;7.60;99.90;;;;;;5023859;28;20416;-74
2022/11/29 06:40:52;;;;;;;162.35;34.63;;;7.60;99.90;;;;;;5030794;28;20457;-73
2022/11/29 06:43:18;;;;;;;159.80;35.20;;;7.60;99.90;;;;;;5027517;28;20409;-74
2022/11/29 06:45:50;;;;;;;150.80;35.40;;;7.60;99.90;;;;;;5028410;28;20853;-73
2022/11/29 06:48:23;;;;;;;159.75;36.13;;;7.60;99.90;;;;;;5019429;28;20500;-73
2022/11/29 06:51:10;;;;;;;138.90;34.53;;;7.60;99.90;;;;;;5030900;28;20419;-73
2022/11/29 06:53:51;;;;;;;163.60;35.13;;;7.60;99.90;;;;;;5011324;28;20542;-73
2022/11/29 06:56:38;;;;;;;140.48;34.00;;;7.60;99.90;;;;;;5026761;28;20425;-73
2022/11/29 06:59:25;;;;;;;132.18;32.20;;;7.60;99.90;;;;;;5026921;28;20419;-73
2022/11/29 07:02:14;;;;;;;135.43;32.60;;;7.60;99.90;;;;;;5028614;28;20419;-73
2022/11/29 07:05:04;;;;;;;127.80;32.03;;;7.60;99.90;;;;;;5010193;28;20473;-73
2022/11/29 07:07:30;;;;;;;133.73;32.28;;;7.60;99.90;;;;;;5019098;28;21068;-73
2022/11/29 07:09:59;;;;;;;110.47;29.98;;;7.60;99.90;;;;;;5029690;28;20410;-73
2022/11/29 07:12:25;;;;;;;107.00;29.60;;;7.60;99.90;;;;;;5005715;28;20414;-73
2022/11/29 07:14:51;;;;;;;112.93;29.73;;;7.60;99.90;;;;;;5032203;28;20429;-73
2022/11/29 07:17:29;;;;;;;114.50;29.55;;;7.60;99.90;;;;;;5028255;28;20517;-73
2022/11/29 07:20:28;;;;;;;108.95;28.70;;;7.50;99.90;;;;;;5037898;28;20923;-73
2022/11/29 07:23:03;;;;;;;94.60;28.02;;;7.60;99.90;;;;;;5028527;28;20442;-73
2022/11/29 07:25:45;;;;;;;89.28;27.42;;;7.60;99.90;;;;;;5020422;28;20417;-73
2022/11/29 07:28:31;;;;;;;96.38;27.83;;;7.50;99.90;;;;;;4998918;28;20430;-73
2022/11/29 07:31:24;;;;;;;96.18;27.55;;;7.60;99.90;;;;;;5023782;28;20491;-73
2022/11/29 07:34:15;;;;;;;81.40;25.80;;;7.60;99.90;;;;;;5026156;28;20415;-73
2022/11/29 07:36:57;;;;;;;86.28;26.58;;;7.60;99.90;;;;;;5025463;28;20929;-73
2022/11/29 07:39:44;;;;;;;89.63;26.27;;;7.60;99.90;;;;;;5040610;28;20413;-73
2022/11/29 07:42:47;;;;;;;85.85;25.90;;;7.60;99.90;;;;;;5034773;28;20442;-73
2022/11/29 07:45:26;;;;;;;91.30;25.93;;;7.60;99.90;;;;;;5038960;28;20414;-73
2022/11/29 07:47:51;;;;;;;83.00;25.60;;;7.60;99.90;;;;;;5040991;28;20418;-73
2022/11/29 07:50:18;;;;;;;91.47;26.00;;;7.60;99.90;;;;;;5028102;28;20407;-73
2022/11/29 07:52:45;;;;;;;83.80;25.73;;;7.60;99.90;;;;;;5047789;28;20470;-73
2022/11/29 07:55:15;;;;;;;85.80;24.73;;;7.60;99.90;;;;;;5047200;28;20413;-73
2022/11/29 07:57:40;;;;;;;87.28;25.55;;;7.60;99.90;;;;;;5030324;28;20431;-73
2022/11/29 08:00:07;;;;;;;75.37;23.90;;;7.60;99.90;;;;;;5045805;28;20409;-73
2022/11/29 08:02:33;;;;;;;80.15;24.27;;;7.60;99.90;;;;;;5047951;28;20420;-73
2022/11/29 08:04:59;;;;;;;78.93;24.33;;;7.70;99.90;;;;;;5036949;28;20399;-73
2022/11/29 08:07:25;;;;;;;86.15;23.92;;;7.70;99.90;;;;;;5039140;28;20489;-73
2022/11/29 08:09:50;;;;;;;73.22;23.65;;;7.70;99.90;;;;;;5050193;28;20615;-73
2022/11/29 08:12:16;;;;;;;71.47;22.37;;;7.70;99.90;;;;;;5031967;28;20411;-73
2022/11/29 08:14:42;;;;;;;73.37;23.33;;;7.70;99.90;;;;;;5032774;28;20437;-73
2022/11/29 08:17:07;;;;;;;79.83;24.23;;;7.70;99.90;;;;;;5043762;28;20470;-74
2022/11/29 08:19:33;;;;;;;73.77;24.07;;;7.70;99.90;;;;;;5026686;28;20435;-73
2022/11/29 08:21:58;;;;;;;75.33;23.80;;;7.80;99.90;;;;;;5039209;28;20756;-73
2022/11/29 08:24:25;;;;;;;70.23;23.23;;;7.80;99.90;;;;;;5002831;28;20415;-73
2022/11/29 08:26:51;;;;;;;71.57;23.45;;;7.80;99.90;;;;;;5037375;28;20416;-73
2022/11/29 08:29:16;;;;;;;62.70;22.17;;;7.80;99.90;;;;;;5036660;28;20399;-73
2022/11/29 08:31:42;;;;;;;70.30;22.83;;;7.80;99.90;;;;;;5019060;28;20995;-73
2022/11/29 08:34:09;;;;;;;65.18;22.30;;;7.80;99.90;;;;;;5044343;28;20421;-73
2022/11/29 08:36:35;;;;;;;68.03;21.98;;;7.80;99.90;;;;;;5031396;28;20434;-73
2022/11/29 08:39:01;;;;;;;63.65;21.02;;;7.80;99.90;;;;;;5039007;28;20401;-73
2022/11/29 08:41:28;;;;;;;77.63;23.08;;;7.90;99.90;;;;;;5031478;28;20437;-73
2022/11/29 08:43:54;;;;;;;66.47;22.03;;;7.90;99.90;;;;;;4994508;28;20463;-73
2022/11/29 08:46:20;;;;;;;72.63;22.30;;;7.90;99.90;;;;;;5037564;28;20729;-73
2022/11/29 08:48:46;;;;;;;56.17;21.50;;;7.90;99.90;;;;;;5036785;28;20551;-73
2022/11/29 08:51:12;;;;;;;68.07;21.70;;;8.00;99.90;;;;;;5030839;28;20416;-73
2022/11/29 08:53:41;;;;;;;63.15;21.05;;;8.00;99.90;;;;;;5025168;28;20418;-73
2022/11/29 08:56:12;;;;;;;58.83;20.17;;;8.00;99.90;;;;;;5032823;28;20437;-73
2022/11/29 08:58:38;;;;;;;61.13;20.83;;;8.10;99.90;;;;;;5038869;28;20414;-73
2022/11/29 09:01:11;;;;;;;59.90;20.98;;;8.10;99.90;;;;;;5031014;28;20983;-73
2022/11/29 09:06:20;;;;;;;52.33;19.15;;;8.10;99.90;;;;;;5013337;28;20406;-73
2022/11/29 09:08:46;;;;;;;54.67;20.00;;;8.20;99.90;;;;;;5028179;28;20500;-73
2022/11/29 09:11:18;;;;;;;51.97;19.10;;;8.20;99.90;;;;;;5013511;28;20415;-73
2022/11/29 09:13:50;;;;;;;54.28;19.05;;;8.30;99.90;;;;;;5037505;28;20402;-73
2022/11/29 09:16:20;;;;;;;54.30;19.83;;;8.30;99.90;;;;;;5036666;28;20431;-73
2022/11/29 09:18:48;;;;;;;51.88;18.95;;;8.40;99.90;;;;;;5032320;28;20419;-73
2022/11/29 09:21:14;;;;;;;52.42;19.13;;;8.40;99.90;;;;;;5045115;28;20488;-73
2022/11/29 09:23:41;;;;;;;50.03;18.33;;;8.40;99.90;;;;;;5020396;28;20465;-73
2022/11/29 09:26:08;;;;;;;56.40;18.83;;;8.40;99.90;;;;;;5033135;28;21069;-73
2022/11/29 09:28:34;;;;;;;55.87;18.60;;;8.50;99.90;;;;;;5049829;28;20404;-73
2022/11/29 09:31:07;;;;;;;48.10;18.63;;;8.50;99.90;;;;;;5046378;28;20395;-73
2022/11/29 09:33:34;;;;;;;50.47;17.52;;;8.50;99.90;;;;;;5049898;28;20402;-72
2022/11/29 09:36:00;;;;;;;47.35;19.02;;;8.60;99.90;;;;;;5038485;28;20425;-73
2022/11/29 09:38:26;;;;;;;48.83;17.73;;;8.60;99.90;;;;;;5032185;28;20405;-74
2022/11/29 09:41:01;;;;;;;40.40;16.85;;;8.60;99.90;;;;;;5034697;28;20426;-73
2022/11/29 09:43:46;;;;;;;47.90;17.73;;;8.70;99.90;;;;;;5022579;28;20420;-74
2022/11/29 09:46:38;;;;;;;45.80;17.90;;;8.70;99.90;;;;;;5046128;28;20875;-73
2022/11/29 09:49:29;;;;;;;42.80;17.33;;;8.80;99.90;;;;;;4999034;28;20421;-74
2022/11/29 09:52:18;;;;;;;45.40;18.60;;;8.80;99.90;;;;;;5049173;28;20516;-73
2022/11/29 09:55:17;;;;;;;40.67;17.30;;;8.90;99.90;;;;;;5016578;28;20411;-73
2022/11/29 09:57:43;;;;;;;42.13;18.60;;;8.90;99.90;;;;;;4996140;28;20497;-73
2022/11/29 10:00:16;;;;;;;48.27;19.30;;;8.90;99.90;;;;;;5024716;28;20406;-73
2022/11/29 10:02:49;;;;;;;50.03;18.67;;;8.90;99.90;;;;;;5049217;28;20398;-73
2022/11/29 10:05:20;;;;;;;44.90;18.55;;;9.00;99.90;;;;;;5030979;28;20406;-73
2022/11/29 10:07:48;;;;;;;47.10;19.70;;;9.00;99.90;;;;;;5024271;28;20407;-73
2022/11/29 10:10:42;;;;;;;48.78;20.13;;;9.00;99.90;;;;;;5011600;28;20425;-73
2022/11/29 10:13:22;;;;;;;49.87;21.67;;;9.10;99.90;;;;;;5029254;28;20453;-73
2022/11/29 10:15:52;;;;;;;54.90;21.58;;;9.10;99.90;;;;;;5011048;28;20474;-73
2022/11/29 10:18:31;;;;;;;52.08;21.08;;;9.10;99.90;;;;;;5029131;28;20753;-73
2022/11/29 10:21:05;;;;;;;52.53;21.27;;;9.00;99.90;;;;;;5028569;28;20504;-73
2022/11/29 10:23:40;;;;;;;50.72;20.30;;;9.00;99.90;;;;;;5029241;28;20953;-73
2022/11/29 10:26:07;;;;;;;54.97;21.45;;;9.00;99.90;;;;;;5029417;28;20502;-73
2022/11/29 10:28:35;;;;;;;54.58;19.88;;;9.00;99.90;;;;;;4985443;28;20951;-73
2022/11/29 10:31:23;;;;;;;47.55;19.40;;;9.00;99.90;;;;;;4994819;28;20463;-73
2022/11/29 10:33:49;;;;;;;46.05;18.65;;;9.00;99.90;;;;;;5010832;28;20407;-73
2022/11/29 10:36:21;;;;;;;39.53;17.33;;;9.00;99.90;;;;;;4999706;28;20488;-73
2022/11/29 10:38:47;;;;;;;46.58;18.75;;;9.00;99.90;;;;;;5029142;28;20769;-73
2022/11/29 10:41:19;;;;;;;42.00;18.20;;;9.00;99.90;;;;;;5029178;28;20403;-73
2022/11/29 10:43:45;;;;;;;43.63;18.42;;;9.00;99.90;;;;;;5029141;28;20399;-73
2022/11/29 10:46:25;;;;;;;50.25;19.88;;;9.00;99.90;;;;;;4994616;28;20461;-73
2022/11/29 10:48:52;;;;;;;42.25;18.00;;;9.00;99.90;;;;;;5011204;28;20411;-73
2022/11/29 10:51:17;;;;;;;47.97;19.52;;;9.00;99.90;;;;;;5018621;28;20412;-73
2022/11/29 10:53:45;;;;;;;43.23;19.17;;;9.00;99.90;;;;;;5010881;28;20409;-73
2022/11/29 10:56:30;;;;;;;43.08;18.20;;;9.00;99.90;;;;;;5011602;28;20468;-73
2022/11/29 10:59:06;;;;;;;42.37;17.63;;;9.00;99.90;;;;;;5026075;28;20458;-73
2022/11/29 11:01:40;;;;;;;38.67;17.10;;;9.00;99.90;;;;;;5028855;28;20415;-73
2022/11/29 11:04:13;;;;;;;36.47;16.63;;;9.00;99.90;;;;;;5012743;28;20486;-73
2022/11/29 11:06:50;;;;;;;39.97;18.08;;;9.00;99.90;;;;;;5006837;28;20401;-73
2022/11/29 11:09:20;;;;;;;38.47;17.73;;;9.10;99.90;;;;;;5006460;28;20539;-73
2022/11/29 11:11:55;;;;;;;36.38;17.88;;;9.00;99.90;;;;;;5018141;28;20816;-73
2022/11/29 11:14:30;;;;;;;39.13;17.48;;;9.00;99.90;;;;;;5019513;28;20829;-72
2022/11/29 11:17:26;;;;;;;37.72;17.75;;;9.10;99.90;;;;;;5010403;28;20498;-72
2022/11/29 11:20:17;;;;;;;37.83;17.42;;;9.10;99.90;;;;;;5010833;28;20782;-73
2022/11/29 11:22:43;;;;;;;35.47;17.33;;;9.10;99.90;;;;;;5018726;28;20417;-74
2022/11/29 11:25:33;;;;;;;37.43;17.80;;;9.00;99.90;;;;;;5025752;28;20399;-72
2022/11/29 11:28:14;;;;;;;31.63;15.68;;;9.00;99.90;;;;;;5018435;28;20416;-73
2022/11/29 11:30:47;;;;;;;36.95;16.67;;;9.00;99.90;;;;;;5024641;28;20901;-73
2022/11/29 11:33:21;;;;;;;34.22;16.45;;;8.90;99.90;;;;;;5008391;28;20466;-72
2022/11/29 11:36:11;;;;;;;34.33;15.57;;;8.90;99.90;;;;;;5013041;28;20405;-73
2022/11/29 11:38:48;;;;;;;38.67;17.15;;;8.80;99.90;;;;;;5019332;28;21124;-72
2022/11/29 11:42:35;;;;;;;47.13;19.38;;;8.80;99.90;;;;;;5009595;28;20408;-73
2022/11/29 11:44:33;;;;;;;42.08;18.05;;;8.80;99.90;;;;;;5023347;28;21128;-74
2022/11/29 11:47:00;;;;;;;48.28;19.30;;;8.80;99.90;;;;;;5008490;28;20409;-73
2022/11/29 11:49:45;;;;;;;53.25;20.85;;;8.80;99.90;;;;;;5021300;28;20401;-73
2022/11/29 11:52:38;;;;;;;44.45;19.35;;;8.80;99.90;;;;;;5010686;28;20413;-73
2022/11/29 11:55:23;;;;;;;48.22;19.60;;;8.70;99.90;;;;;;4997655;28;20412;-73
2022/11/29 11:58:06;;;;;;;53.58;20.45;;;8.70;99.90;;;;;;5015341;28;21450;-72
2022/11/29 12:00:49;;;;;;;52.95;21.77;;;8.70;99.90;;;;;;5006982;28;20736;-72
2022/11/29 12:03:37;;;;;;;56.85;20.10;;;8.70;99.90;;;;;;5019227;28;21098;-73
2022/11/29 12:06:31;;;;;;;62.35;20.08;;;8.70;99.90;;;;;;4987470;28;21211;-73
2022/11/29 12:09:18;;;;;;;70.93;21.87;;;8.70;99.90;;;;;;5030481;28;20460;-73
2022/11/29 12:12:08;;;;;;;77.18;22.65;;;8.60;99.90;;;;;;5034239;28;20415;-72
2022/11/29 12:14:56;;;;;;;75.30;22.67;;;8.60;99.90;;;;;;5038934;28;20445;-72
2022/11/29 12:17:38;;;;;;;77.45;22.30;;;8.60;99.90;;;;;;5027636;28;20518;-72
2022/11/29 12:20:23;;;;;;;83.23;23.07;;;8.60;99.90;;;;;;5039338;28;20921;-72
2022/11/29 12:23:17;;;;;;;81.28;24.33;;;8.50;99.90;;;;;;5023215;28;20495;-72
2022/11/29 12:25:55;;;;;;;82.70;23.08;;;8.50;99.90;;;;;;5029419;28;20556;-72
2022/11/29 12:28:28;;;;;;;87.22;23.17;;;8.50;99.90;;;;;;5044405;28;20405;-72
2022/11/29 12:31:10;;;;;;;81.65;21.70;;;8.50;99.90;;;;;;5033344;28;20468;-72
2022/11/29 12:33:55;;;;;;;68.95;19.38;;;8.40;99.90;;;;;;5025967;28;20417;-72
2022/11/29 12:36:21;;;;;;;61.70;19.65;;;8.30;99.90;;;;;;5041896;28;20497;-72
2022/11/29 12:38:58;;;;;;;75.53;21.13;;;8.20;99.90;;;;;;5039323;28;20405;-72
2022/11/29 12:41:39;;;;;;;68.18;20.75;;;8.20;99.90;;;;;;5014874;28;20953;-73
2022/11/29 12:44:28;;;;;;;80.13;22.05;;;8.10;99.90;;;;;;5012600;28;20914;-73
2022/11/29 12:47:16;;;;;;;75.90;21.50;;;8.10;99.90;;;;;;5041937;28;20422;-72
2022/11/29 12:49:54;;;;;;;62.40;20.27;;;8.00;99.90;;;;;;5020457;28;20770;-72
2022/11/29 12:52:57;;;;;;;58.28;20.27;;;8.00;99.90;;;;;;5034734;28;20418;-73
2022/11/29 12:55:46;;;;;;;68.43;21.27;;;8.00;99.90;;;;;;5042177;28;20403;-72
2022/11/29 12:58:45;;;;;;;63.22;21.42;;;8.00;99.90;;;;;;5049349;28;20405;-72
2022/11/29 13:01:33;;;;;;;79.95;22.35;;;7.90;99.90;;;;;;5040613;28;20995;-73
2022/11/29 13:04:14;;;;;;;65.03;21.17;;;7.90;99.90;;;;;;5037630;28;20419;-73
2022/11/29 13:07:10;;;;;;;60.57;20.03;;;7.90;99.90;;;;;;5046334;28;20402;-73
2022/11/29 13:09:51;;;;;;;53.78;19.05;;;7.90;99.90;;;;;;5030923;28;20481;-73
2022/11/29 13:12:34;;;;;;;51.15;18.15;;;7.90;99.90;;;;;;4997641;28;20413;-72
2022/11/29 13:15:17;;;;;;;51.28;18.17;;;7.80;99.90;;;;;;5033601;28;20414;-72
2022/11/29 13:18:14;;;;;;;51.30;17.83;;;7.80;99.90;;;;;;5030996;28;20431;-72
2022/11/29 13:20:58;;;;;;;46.65;17.77;;;7.80;99.90;;;;;;5023978;28;20415;-72
2022/11/29 13:23:27;;;;;;;49.60;17.63;;;7.80;99.90;;;;;;5032191;28;20545;-73
2022/11/29 13:25:56;;;;;;;47.55;16.60;;;7.70;99.90;;;;;;5036962;28;20411;-73
2022/11/29 13:28:25;;;;;;;43.70;16.63;;;7.70;99.90;;;;;;5033024;28;20403;-72
2022/11/29 13:30:53;;;;;;;39.22;15.43;;;7.70;99.90;;;;;;5031439;28;20960;-72